createdAt,value
2022-11-08T00:00:03.363Z,99.99
2022-11-08T00:01:03.346Z,99.99
2022-11-08T00:02:03.468Z,99.99
2022-11-08T00:03:03.399Z,99.99
2022-11-08T00:04:03.308Z,99.99
2022-11-08T00:05:03.295Z,99.99
2022-11-08T00:06:03.282Z,99.99
2022-11-08T00:07:03.269Z,99.99
2022-11-08T00:08:03.259Z,99.99
2022-11-08T00:09:03.243Z,99.99
2022-11-08T00:10:03.227Z,99.99
2022-11-08T00:11:03.211Z,99.99
2022-11-08T00:12:03.200Z,99.99
2022-11-08T00:13:03.212Z,99.99
2022-11-08T00:14:03.179Z,99.99
2022-11-08T00:15:03.167Z,99.99
2022-11-08T00:16:03.146Z,99.99
2022-11-08T00:17:03.144Z,99.99
2022-11-08T00:18:03.124Z,99.99
2022-11-08T00:19:03.115Z,99.99
2022-11-08T00:20:03.101Z,99.99
2022-11-08T00:21:03.092Z,99.99
2022-11-08T00:22:03.074Z,99.99
2022-11-08T00:23:03.074Z,99.99
2022-11-08T00:24:03.062Z,99.99
2022-11-08T00:25:03.038Z,99.99
2022-11-08T00:26:03.027Z,99.99
2022-11-08T00:27:03.008Z,99.99
2022-11-08T00:28:02.998Z,99.99
2022-11-08T00:29:03.005Z,99.99
2022-11-08T00:30:02.968Z,99.99
2022-11-08T00:31:02.966Z,99.99
2022-11-08T00:32:02.943Z,99.99
2022-11-08T00:33:02.934Z,99.99
2022-11-08T00:34:02.919Z,99.99
2022-11-08T00:35:02.910Z,99.99
2022-11-08T00:36:02.892Z,99.99
2022-11-08T00:37:02.883Z,99.99
2022-11-08T00:38:02.866Z,99.99
2022-11-08T00:39:02.854Z,99.99
2022-11-08T00:40:02.850Z,99.99
2022-11-08T00:41:02.832Z,99.99
2022-11-08T00:42:02.816Z,99.99
2022-11-08T00:43:02.815Z,99.99
2022-11-08T00:44:02.791Z,99.99
2022-11-08T00:45:02.802Z,99.99
2022-11-08T00:46:02.761Z,99.99
2022-11-08T00:47:02.797Z,99.99
2022-11-08T00:48:02.744Z,99.99
2022-11-08T00:49:02.725Z,99.99
2022-11-08T00:50:02.713Z,99.99
2022-11-08T00:51:02.711Z,99.99
2022-11-08T00:52:02.691Z,99.99
2022-11-08T00:53:02.681Z,99.99
2022-11-08T00:54:02.661Z,99.99
2022-11-08T00:55:02.650Z,99.99
2022-11-08T00:56:02.641Z,99.99
2022-11-08T00:57:02.625Z,99.99
2022-11-08T00:58:02.612Z,99.99
2022-11-08T00:59:02.598Z,99.99
2022-11-08T01:00:02.583Z,99.99
2022-11-08T01:01:02.675Z,99.99
2022-11-08T01:02:02.738Z,99.99
2022-11-08T01:03:02.545Z,99.99
2022-11-08T01:04:02.531Z,99.99
2022-11-08T01:05:02.522Z,99.99
2022-11-08T01:06:02.505Z,99.99
2022-11-08T01:07:02.495Z,99.99
2022-11-08T01:08:02.480Z,99.99
2022-11-08T01:09:02.472Z,99.99
2022-11-08T01:10:02.457Z,99.99
2022-11-08T01:11:02.441Z,99.99
2022-11-08T01:12:02.432Z,99.99
2022-11-08T01:13:02.426Z,99.99
2022-11-08T01:14:02.406Z,99.99
2022-11-08T01:15:02.451Z,99.99
2022-11-08T01:16:02.377Z,99.99
2022-11-08T01:17:02.402Z,99.99
2022-11-08T01:18:02.355Z,99.99
2022-11-08T01:19:02.338Z,99.99
2022-11-08T01:20:02.327Z,99.99
2022-11-08T01:21:02.315Z,99.99
2022-11-08T01:22:02.302Z,99.99
2022-11-08T01:23:02.289Z,99.99
2022-11-08T01:24:02.279Z,99.99
2022-11-08T01:25:02.265Z,99.99
2022-11-08T01:26:02.251Z,99.99
2022-11-08T01:27:02.238Z,99.99
2022-11-08T01:28:02.225Z,99.99
2022-11-08T01:29:02.211Z,99.99
2022-11-08T01:30:02.206Z,99.99
2022-11-08T01:31:02.199Z,99.99
2022-11-08T01:32:02.174Z,99.99
2022-11-08T01:33:02.188Z,99.99
2022-11-08T01:34:02.159Z,99.99
2022-11-08T01:35:02.143Z,99.99
2022-11-08T01:36:02.125Z,99.99
2022-11-08T01:37:02.116Z,99.99
2022-11-08T01:38:02.096Z,99.99
2022-11-08T01:39:02.087Z,99.99
2022-11-08T01:40:02.082Z,99.99
2022-11-08T01:41:02.061Z,99.99
2022-11-08T01:42:02.052Z,99.99
2022-11-08T01:43:02.031Z,99.99
2022-11-08T01:44:02.024Z,99.99
2022-11-08T01:45:02.054Z,99.99
2022-11-08T01:46:01.998Z,99.99
2022-11-08T01:47:01.981Z,99.99
2022-11-08T01:48:01.976Z,99.99
2022-11-08T01:49:01.983Z,99.99
2022-11-08T01:50:01.950Z,99.99
2022-11-08T01:51:01.931Z,99.99
2022-11-08T01:52:01.919Z,99.99
2022-11-08T01:53:01.911Z,99.99
2022-11-08T01:54:01.896Z,99.99
2022-11-08T01:55:01.881Z,99.99
2022-11-08T01:56:01.868Z,99.99
2022-11-08T01:57:01.856Z,99.99
2022-11-08T01:58:01.843Z,99.99
2022-11-08T01:59:01.834Z,99.99
2022-11-08T02:00:01.839Z,99.99
2022-11-08T02:01:01.936Z,99.99
2022-11-08T02:02:01.955Z,99.99
2022-11-08T02:03:01.790Z,99.99
2022-11-08T02:04:01.769Z,99.99
2022-11-08T02:05:01.780Z,99.99
2022-11-08T02:06:01.745Z,99.99
2022-11-08T02:07:01.727Z,99.99
2022-11-08T02:08:01.715Z,99.99
2022-11-08T02:09:01.709Z,99.99
2022-11-08T02:10:01.689Z,99.99
2022-11-08T02:11:01.675Z,99.99
2022-11-08T02:12:01.665Z,99.99
2022-11-08T02:13:05.069Z,99.99
2022-11-08T02:14:01.640Z,99.99
2022-11-08T02:15:01.629Z,99.99
2022-11-08T02:16:01.610Z,99.99
2022-11-08T02:17:01.599Z,99.99
2022-11-08T02:18:01.593Z,99.99
2022-11-08T02:19:01.576Z,99.99
2022-11-08T02:20:01.567Z,99.99
2022-11-08T02:21:01.574Z,99.99
2022-11-08T02:22:01.537Z,99.99
2022-11-08T02:23:01.519Z,99.99
2022-11-08T02:24:01.539Z,99.99
2022-11-08T02:25:01.495Z,99.99
2022-11-08T02:26:01.486Z,99.99
2022-11-08T02:27:01.476Z,99.99
2022-11-08T02:28:01.460Z,99.99
2022-11-08T02:29:01.447Z,99.99
2022-11-08T02:30:01.434Z,99.99
2022-11-08T02:31:01.420Z,99.99
2022-11-08T02:32:01.407Z,99.99
2022-11-08T02:33:01.401Z,99.99
2022-11-08T02:34:01.384Z,99.99
2022-11-08T02:35:01.370Z,99.99
2022-11-08T02:36:01.363Z,99.99
2022-11-08T02:37:01.378Z,99.99
2022-11-08T02:38:01.335Z,99.99
2022-11-08T02:39:01.325Z,99.99
2022-11-08T02:40:01.342Z,99.99
2022-11-08T02:41:01.294Z,99.99
2022-11-08T02:42:01.282Z,99.99
2022-11-08T02:43:01.270Z,99.99
2022-11-08T02:44:01.258Z,99.99
2022-11-08T02:45:01.244Z,99.99
2022-11-08T02:46:01.235Z,99.99
2022-11-08T02:47:01.217Z,99.99
2022-11-08T02:48:01.212Z,99.99
2022-11-08T02:49:01.193Z,99.99
2022-11-08T02:50:01.181Z,99.99
2022-11-08T02:51:01.171Z,99.99
2022-11-08T02:52:01.159Z,99.99
2022-11-08T02:53:01.163Z,99.99
2022-11-08T02:54:01.136Z,99.99
2022-11-08T02:55:01.121Z,99.99
2022-11-08T02:56:01.104Z,99.99
2022-11-08T02:57:01.096Z,99.99
2022-11-08T02:58:01.078Z,99.99
2022-11-08T02:59:01.071Z,99.99
2022-11-08T03:00:01.088Z,99.99
2022-11-08T03:01:01.192Z,99.99
2022-11-08T03:02:01.239Z,99.99
2022-11-08T03:03:01.022Z,99.99
2022-11-08T03:04:01.004Z,99.99
2022-11-08T03:05:00.988Z,99.99
2022-11-08T03:06:00.977Z,99.99
2022-11-08T03:07:00.962Z,99.99
2022-11-08T03:08:00.949Z,99.99
2022-11-08T03:09:00.961Z,99.99
2022-11-08T03:10:00.927Z,99.99
2022-11-08T03:11:00.910Z,99.99
2022-11-08T03:12:00.900Z,99.99
2022-11-08T03:13:00.898Z,99.99
2022-11-08T03:14:00.871Z,99.99
2022-11-08T03:15:00.860Z,99.99
2022-11-08T03:16:00.849Z,99.99
2022-11-08T03:17:00.836Z,99.99
2022-11-08T03:18:00.824Z,99.99
2022-11-08T03:19:00.807Z,99.99
2022-11-08T03:20:00.798Z,99.99
2022-11-08T03:21:00.780Z,99.99
2022-11-08T03:22:00.774Z,99.99
2022-11-08T03:23:00.818Z,99.99
2022-11-08T03:24:00.746Z,99.99
2022-11-08T03:25:00.791Z,99.99
2022-11-08T03:26:00.718Z,99.99
2022-11-08T03:27:00.704Z,99.99
2022-11-08T03:28:00.693Z,99.99
2022-11-08T03:29:00.682Z,99.99
2022-11-08T03:30:00.664Z,99.99
2022-11-08T03:31:00.658Z,99.99
2022-11-08T03:32:00.641Z,99.99
2022-11-08T03:33:00.627Z,99.99
2022-11-08T03:34:00.615Z,99.99
2022-11-08T03:35:00.601Z,99.99
2022-11-08T03:36:00.588Z,99.99
2022-11-08T03:37:00.572Z,99.99
2022-11-08T03:38:00.564Z,99.99
2022-11-08T03:39:00.557Z,99.99
2022-11-08T03:40:00.536Z,99.99
2022-11-08T03:41:00.550Z,99.99
2022-11-08T03:42:00.511Z,99.99
2022-11-08T03:43:00.498Z,99.99
2022-11-08T03:44:00.492Z,99.99
2022-11-08T03:45:00.473Z,99.99
2022-11-08T03:46:00.457Z,99.99
2022-11-08T03:47:00.447Z,99.99
2022-11-08T03:48:00.433Z,99.99
2022-11-08T03:49:00.423Z,99.99
2022-11-08T03:50:00.408Z,99.99
2022-11-08T03:51:00.397Z,99.99
2022-11-08T03:52:00.384Z,99.99
2022-11-08T03:53:00.370Z,99.99
2022-11-08T03:54:00.375Z,99.99
2022-11-08T03:55:00.348Z,99.99
2022-11-08T03:56:00.328Z,99.99
2022-11-08T03:57:00.355Z,99.99
2022-11-08T03:58:00.305Z,99.99
2022-11-08T03:59:00.290Z,99.99
2022-11-08T04:00:00.285Z,99.99
2022-11-08T04:01:00.343Z,99.99
2022-11-08T04:02:00.458Z,99.99
2022-11-08T04:03:00.239Z,99.99
2022-11-08T04:04:00.229Z,99.99
2022-11-08T04:05:00.224Z,99.99
2022-11-08T04:06:00.202Z,99.99
2022-11-08T04:07:00.189Z,99.99
2022-11-08T04:08:00.178Z,99.99
2022-11-08T04:09:00.162Z,99.99
2022-11-08T04:10:00.159Z,99.99
2022-11-08T04:11:00.138Z,99.99
2022-11-08T04:12:00.124Z,99.99
2022-11-08T04:13:00.270Z,99.99
2022-11-08T04:14:00.098Z,99.99
2022-11-08T04:15:00.083Z,99.99
2022-11-08T04:16:00.158Z,99.99
2022-11-08T04:17:00.067Z,99.99
2022-11-08T04:18:00.046Z,99.99
2022-11-08T04:19:00.036Z,99.99
2022-11-08T04:20:00.018Z,99.99
2022-11-08T04:21:00.004Z,99.99
2022-11-08T04:21:59.994Z,99.99
2022-11-08T04:22:59.978Z,99.99
2022-11-08T04:23:59.962Z,99.99
2022-11-08T04:24:59.949Z,99.99
2022-11-08T04:25:59.940Z,99.99
2022-11-08T04:26:59.922Z,99.99
2022-11-08T04:27:59.911Z,99.99
2022-11-08T04:28:59.923Z,99.99
2022-11-08T04:29:59.883Z,99.99
2022-11-08T04:30:59.869Z,99.99
2022-11-08T04:31:59.857Z,99.99
2022-11-08T04:32:59.844Z,99.99
2022-11-08T04:33:59.829Z,99.99
2022-11-08T04:34:59.819Z,99.99
2022-11-08T04:35:59.801Z,99.99
2022-11-08T04:36:59.793Z,99.99
2022-11-08T04:37:59.778Z,99.99
2022-11-08T04:38:59.770Z,99.99
2022-11-08T04:39:59.750Z,99.99
2022-11-08T04:40:59.740Z,99.99
2022-11-08T04:42:02.332Z,99.99
2022-11-08T04:42:59.714Z,99.99
2022-11-08T04:43:59.710Z,99.99
2022-11-08T04:44:59.707Z,99.99
2022-11-08T04:45:59.677Z,99.99
2022-11-08T04:46:59.663Z,99.99
2022-11-08T04:47:59.645Z,99.99
2022-11-08T04:48:59.631Z,99.99
2022-11-08T04:49:59.620Z,99.99
2022-11-08T04:50:59.605Z,99.99
2022-11-08T04:51:59.593Z,99.99
2022-11-08T04:52:59.582Z,99.99
2022-11-08T04:53:59.573Z,99.99
2022-11-08T04:54:59.553Z,99.99
2022-11-08T04:55:59.538Z,99.99
2022-11-08T04:56:59.525Z,99.99
2022-11-08T04:57:59.519Z,99.99
2022-11-08T04:58:59.500Z,99.99
2022-11-08T04:59:59.488Z,99.99
2022-11-08T05:00:59.549Z,99.99
2022-11-08T05:01:59.602Z,99.99
2022-11-08T05:02:59.447Z,99.99
2022-11-08T05:03:59.431Z,99.99
2022-11-08T05:04:59.423Z,99.99
2022-11-08T05:05:59.411Z,99.99
2022-11-08T05:06:59.401Z,99.99
2022-11-08T05:07:59.389Z,99.99
2022-11-08T05:08:59.368Z,99.99
2022-11-08T05:10:02.331Z,99.99
2022-11-08T05:10:59.343Z,99.99
2022-11-08T05:11:59.329Z,99.99
2022-11-08T05:12:59.320Z,99.99
2022-11-08T05:13:59.309Z,99.99
2022-11-08T05:14:59.292Z,99.99
2022-11-08T05:15:59.282Z,99.99
2022-11-08T05:16:59.291Z,99.99
2022-11-08T05:17:59.250Z,99.99
2022-11-08T05:18:59.239Z,99.99
2022-11-08T05:19:59.227Z,99.99
2022-11-08T05:20:59.215Z,99.99
2022-11-08T05:21:59.198Z,99.99
2022-11-08T05:22:59.187Z,99.99
2022-11-08T05:23:59.172Z,99.99
2022-11-08T05:24:59.159Z,99.99
2022-11-08T05:25:59.148Z,99.99
2022-11-08T05:26:59.133Z,99.99
2022-11-08T05:27:59.123Z,99.99
2022-11-08T05:28:59.114Z,99.99
2022-11-08T05:29:59.097Z,99.99
2022-11-08T05:30:59.085Z,99.99
2022-11-08T05:31:59.073Z,99.99
2022-11-08T05:32:59.089Z,99.99
2022-11-08T05:33:59.044Z,99.99
2022-11-08T05:34:59.034Z,99.99
2022-11-08T05:36:02.187Z,99.99
2022-11-08T05:37:00.046Z,99.99
2022-11-08T05:37:58.998Z,99.99
2022-11-08T05:38:58.982Z,99.99
2022-11-08T05:39:58.977Z,99.99
2022-11-08T05:40:58.958Z,99.99
2022-11-08T05:41:58.939Z,99.99
2022-11-08T05:42:58.936Z,99.99
2022-11-08T05:43:58.917Z,99.99
2022-11-08T05:44:58.901Z,99.99
2022-11-08T05:45:58.892Z,99.99
2022-11-08T05:46:58.892Z,99.99
2022-11-08T05:47:58.867Z,99.99
2022-11-08T05:48:58.873Z,99.99
2022-11-08T05:49:58.838Z,99.99
2022-11-08T05:50:58.822Z,99.99
2022-11-08T05:51:58.815Z,99.99
2022-11-08T05:52:58.799Z,99.99
2022-11-08T05:53:58.808Z,99.99
2022-11-08T05:54:58.769Z,99.99
2022-11-08T05:55:58.755Z,99.99
2022-11-08T05:56:58.746Z,99.99
2022-11-08T05:57:58.734Z,99.99
2022-11-08T05:58:58.717Z,99.99
2022-11-08T05:59:58.702Z,99.99
2022-11-08T06:00:58.688Z,99.99
2022-11-08T06:01:58.732Z,99.99
2022-11-08T06:02:58.735Z,99.99
2022-11-08T06:03:58.655Z,99.99
2022-11-08T06:04:58.664Z,99.99
2022-11-08T06:05:58.624Z,99.99
2022-11-08T06:06:58.613Z,99.99
2022-11-08T06:07:58.594Z,99.99
2022-11-08T06:08:58.594Z,99.99
2022-11-08T06:09:58.569Z,99.99
2022-11-08T06:10:58.556Z,99.99
2022-11-08T06:11:58.550Z,99.99
2022-11-08T06:12:58.533Z,99.99
2022-11-08T06:13:58.520Z,99.99
2022-11-08T06:14:58.507Z,99.99
2022-11-08T06:15:58.502Z,99.99
2022-11-08T06:16:58.479Z,99.99
2022-11-08T06:17:58.467Z,99.99
2022-11-08T06:18:58.453Z,99.99
2022-11-08T06:19:58.437Z,99.99
2022-11-08T06:20:58.453Z,99.99
2022-11-08T06:21:58.409Z,99.99
2022-11-08T06:22:58.399Z,99.99
2022-11-08T06:23:58.385Z,99.99
2022-11-08T06:24:58.380Z,99.99
2022-11-08T06:25:58.360Z,99.99
2022-11-08T06:26:58.346Z,99.99
2022-11-08T06:27:58.333Z,99.99
2022-11-08T06:28:58.320Z,99.99
2022-11-08T06:29:58.306Z,99.99
2022-11-08T06:30:58.293Z,99.99
2022-11-08T06:31:58.287Z,99.99
2022-11-08T06:32:58.266Z,99.99
2022-11-08T06:33:58.253Z,99.99
2022-11-08T06:34:58.236Z,99.99
2022-11-08T06:35:58.232Z,99.99
2022-11-08T06:36:58.238Z,99.99
2022-11-08T06:38:01.196Z,99.99
2022-11-08T06:38:58.187Z,99.99
2022-11-08T06:39:58.172Z,99.99
2022-11-08T06:40:58.155Z,99.99
2022-11-08T06:41:58.149Z,99.99
2022-11-08T06:42:58.135Z,99.99
2022-11-08T06:43:58.118Z,99.99
2022-11-08T06:44:58.105Z,99.99
2022-11-08T06:45:58.093Z,99.99
2022-11-08T06:46:58.080Z,99.99
2022-11-08T06:47:58.061Z,99.99
2022-11-08T06:48:58.045Z,99.99
2022-11-08T06:49:58.038Z,99.99
2022-11-08T06:50:58.025Z,99.99
2022-11-08T06:51:58.005Z,99.99
2022-11-08T06:52:58.013Z,99.99
2022-11-08T06:53:57.982Z,99.99
2022-11-08T06:54:57.961Z,99.99
2022-11-08T06:55:57.964Z,99.99
2022-11-08T06:56:57.938Z,99.99
2022-11-08T06:57:57.929Z,99.99
2022-11-08T06:58:57.921Z,99.99
2022-11-08T06:59:57.901Z,99.99
2022-11-08T07:00:57.903Z,99.99
2022-11-08T07:01:57.979Z,99.99
2022-11-08T07:02:58.012Z,99.99
2022-11-08T07:03:57.853Z,99.99
2022-11-08T07:04:57.837Z,99.99
2022-11-08T07:05:57.825Z,99.99
2022-11-08T07:06:57.809Z,99.99
2022-11-08T07:07:57.799Z,99.99
2022-11-08T07:08:57.806Z,99.99
2022-11-08T07:10:02.447Z,99.99
2022-11-08T07:10:58.784Z,99.99
2022-11-08T07:11:57.745Z,99.99
2022-11-08T07:12:57.729Z,99.99
2022-11-08T07:13:57.716Z,99.99
2022-11-08T07:14:57.704Z,99.99
2022-11-08T07:15:57.682Z,99.99
2022-11-08T07:16:57.679Z,99.99
2022-11-08T07:17:57.724Z,99.99
2022-11-08T07:18:57.643Z,99.99
2022-11-08T07:19:57.649Z,99.99
2022-11-08T07:20:57.623Z,99.99
2022-11-08T07:21:57.609Z,99.99
2022-11-08T07:22:57.599Z,99.99
2022-11-08T07:23:57.586Z,99.99
2022-11-08T07:24:57.594Z,99.99
2022-11-08T07:25:57.559Z,99.99
2022-11-08T07:26:57.547Z,99.99
2022-11-08T07:27:57.541Z,99.99
2022-11-08T07:28:57.517Z,99.99
2022-11-08T07:29:57.503Z,99.99
2022-11-08T07:30:57.495Z,99.99
2022-11-08T07:31:57.474Z,99.99
2022-11-08T07:32:57.457Z,99.99
2022-11-08T07:33:57.446Z,99.99
2022-11-08T07:34:57.434Z,99.99
2022-11-08T07:35:57.429Z,99.99
2022-11-08T07:36:57.407Z,97.66
2022-11-08T07:37:57.393Z,94.59
2022-11-08T07:38:59.299Z,88.31
2022-11-08T07:39:57.365Z,84.99
2022-11-08T07:40:57.380Z,83.22
2022-11-08T07:41:57.348Z,79.88
2022-11-08T07:43:11.269Z,77.45
2022-11-08T07:43:58.346Z,75.67
2022-11-08T07:44:57.298Z,74.77
2022-11-08T07:45:57.285Z,73.27
2022-11-08T07:46:57.270Z,70.97
2022-11-08T07:47:57.262Z,70.90
2022-11-08T07:48:57.249Z,70.73
2022-11-08T07:49:57.238Z,69.85
2022-11-08T07:50:57.226Z,70.60
2022-11-08T07:51:57.213Z,72.34
2022-11-08T07:52:57.196Z,72.47
2022-11-08T07:54:02.620Z,76.04
2022-11-08T07:54:57.168Z,78.24
2022-11-08T07:55:57.155Z,79.37
2022-11-08T07:56:57.183Z,79.99
2022-11-08T07:57:57.124Z,80.09
2022-11-08T07:58:57.109Z,80.75
2022-11-08T07:59:57.100Z,80.27
2022-11-08T08:00:57.089Z,80.68
2022-11-08T08:01:57.152Z,81.17
2022-11-08T08:02:57.114Z,82.59
2022-11-08T08:03:57.041Z,83.76
2022-11-08T08:04:57.030Z,85.55
2022-11-08T08:06:01.036Z,86.63
2022-11-08T08:06:57.011Z,87.87
2022-11-08T08:07:56.994Z,88.53
2022-11-08T08:08:56.995Z,89.09
2022-11-08T08:09:56.975Z,89.92
2022-11-08T08:10:56.959Z,90.68
2022-11-08T08:11:56.937Z,91.55
2022-11-08T08:12:56.961Z,92.18
2022-11-08T08:13:56.919Z,92.69
2022-11-08T08:14:56.903Z,93.15
2022-11-08T08:15:56.887Z,93.98
2022-11-08T08:16:56.878Z,94.54
2022-11-08T08:17:56.869Z,95.26
2022-11-08T08:18:56.998Z,95.72
2022-11-08T08:19:56.836Z,96.34
2022-11-08T08:20:56.824Z,96.61
2022-11-08T08:21:56.817Z,96.98
2022-11-08T08:22:56.799Z,96.78
2022-11-08T08:23:56.788Z,95.95
2022-11-08T08:25:00.514Z,95.32
2022-11-08T08:25:56.766Z,95.26
2022-11-08T08:26:56.751Z,95.37
2022-11-08T08:27:56.730Z,95.47
2022-11-08T08:28:56.737Z,95.68
2022-11-08T08:29:56.703Z,95.99
2022-11-08T08:30:56.692Z,96.09
2022-11-08T08:31:56.687Z,96.15
2022-11-08T08:33:22.033Z,96.26
2022-11-08T08:33:57.688Z,96.52
2022-11-08T08:34:56.649Z,96.58
2022-11-08T08:35:56.667Z,96.44
2022-11-08T08:36:56.612Z,94.94
2022-11-08T08:37:56.605Z,94.69
2022-11-08T08:38:56.589Z,94.34
2022-11-08T08:39:56.576Z,93.78
2022-11-08T08:40:56.555Z,93.22
2022-11-08T08:41:56.556Z,92.25
2022-11-08T08:42:56.531Z,89.81
2022-11-08T08:43:56.521Z,90.70
2022-11-08T08:44:56.532Z,89.01
2022-11-08T08:45:56.494Z,87.90
2022-11-08T08:46:56.497Z,86.58
2022-11-08T08:47:56.460Z,85.82
2022-11-08T08:48:56.467Z,84.40
2022-11-08T08:49:56.440Z,82.96
2022-11-08T08:50:56.435Z,82.51
2022-11-08T08:51:56.426Z,81.52
2022-11-08T08:52:56.417Z,82.24
2022-11-08T08:53:56.383Z,83.20
2022-11-08T08:54:56.383Z,84.23
2022-11-08T08:55:56.369Z,85.41
2022-11-08T08:56:56.357Z,85.71
2022-11-08T08:57:56.350Z,86.27
2022-11-08T09:01:57.314Z,89.36
2022-11-08T09:02:56.277Z,89.36
2022-11-08T09:03:56.254Z,89.77
2022-11-08T09:04:56.247Z,89.46
2022-11-08T09:05:56.233Z,89.62
2022-11-08T09:06:56.281Z,88.90
2022-11-08T09:07:56.199Z,87.73
2022-11-08T09:08:56.200Z,86.07
2022-11-08T09:09:56.186Z,84.00
2022-11-08T09:10:56.173Z,83.14
2022-11-08T09:11:56.157Z,82.22
2022-11-08T09:12:56.159Z,83.65
2022-11-08T09:13:56.128Z,83.90
2022-11-08T09:14:56.115Z,84.04
2022-11-08T09:15:56.108Z,84.96
2022-11-08T09:16:56.113Z,85.74
2022-11-08T09:17:56.081Z,86.46
2022-11-08T09:18:56.069Z,86.46
2022-11-08T09:19:57.457Z,85.85
2022-11-08T09:20:56.041Z,85.23
2022-11-08T09:21:56.077Z,85.64
2022-11-08T09:22:56.016Z,85.13
2022-11-08T09:23:55.998Z,86.52
2022-11-08T09:24:55.986Z,85.39
2022-11-08T09:25:56.006Z,84.64
2022-11-08T09:26:55.968Z,84.03
2022-11-08T09:27:55.949Z,84.37
2022-11-08T09:28:55.939Z,84.99
2022-11-08T09:29:55.926Z,84.92
2022-11-08T09:30:55.912Z,85.78
2022-11-08T09:31:55.904Z,86.09
2022-11-08T09:33:03.452Z,86.85
2022-11-08T09:33:56.948Z,88.18
2022-11-08T09:34:55.867Z,88.53
2022-11-08T09:35:55.854Z,89.36
2022-11-08T09:36:55.841Z,90.18
2022-11-08T09:37:55.831Z,90.69
2022-11-08T09:38:55.817Z,90.83
2022-11-08T09:39:55.805Z,91.86
2022-11-08T09:40:55.784Z,91.86
2022-11-08T09:41:55.938Z,91.55
2022-11-08T09:42:55.756Z,90.88
2022-11-08T09:43:55.745Z,91.39
2022-11-08T09:44:55.739Z,91.80
2022-11-08T09:45:55.727Z,91.60
2022-11-08T09:46:55.712Z,91.80
2022-11-08T09:47:55.700Z,92.11
2022-11-08T09:48:55.718Z,91.80
2022-11-08T09:49:55.670Z,91.91
2022-11-08T09:50:55.658Z,91.49
2022-11-08T09:51:55.646Z,91.60
2022-11-08T09:52:55.635Z,92.01
2022-11-08T09:53:55.619Z,92.58
2022-11-08T09:54:55.609Z,92.89
2022-11-08T09:55:55.595Z,93.51
2022-11-08T09:56:55.612Z,93.51
2022-11-08T09:57:55.571Z,93.40
2022-11-08T09:58:55.570Z,93.40
2022-11-08T09:59:55.551Z,93.10
2022-11-08T10:00:55.539Z,93.40
2022-11-08T10:01:55.550Z,93.57
2022-11-08T10:02:55.513Z,93.67
2022-11-08T10:03:55.492Z,93.87
2022-11-08T10:04:55.498Z,93.67
2022-11-08T10:05:55.479Z,93.52
2022-11-08T10:06:58.144Z,93.21
2022-11-08T10:07:56.488Z,93.21
2022-11-08T10:08:55.441Z,93.21
2022-11-08T10:09:55.419Z,93.21
2022-11-08T10:10:55.408Z,93.12
2022-11-08T10:11:55.392Z,92.35
2022-11-08T10:12:55.380Z,92.35
2022-11-08T10:13:55.373Z,92.66
2022-11-08T10:14:55.354Z,92.55
2022-11-08T10:15:55.337Z,92.97
2022-11-08T10:16:55.340Z,93.38
2022-11-08T10:17:55.323Z,93.64
2022-11-08T10:18:55.301Z,93.33
2022-11-08T10:19:55.289Z,91.59
2022-11-08T10:20:55.305Z,88.62
2022-11-08T10:21:55.263Z,87.90
2022-11-08T10:22:55.251Z,87.76
2022-11-08T10:23:55.235Z,88.37
2022-11-08T10:24:55.226Z,88.98
2022-11-08T10:25:55.210Z,90.01
2022-11-08T10:26:55.197Z,89.87
2022-11-08T10:27:55.193Z,86.99
2022-11-08T10:28:55.185Z,86.28
2022-11-08T10:29:55.161Z,86.38
2022-11-08T10:30:55.138Z,85.87
2022-11-08T10:31:55.137Z,85.63
2022-11-08T10:32:55.119Z,85.01
2022-11-08T10:33:55.120Z,84.29
2022-11-08T10:34:55.102Z,84.91
2022-11-08T10:35:59.185Z,84.46
2022-11-08T10:36:56.139Z,84.15
2022-11-08T10:37:55.059Z,84.83
2022-11-08T10:38:55.046Z,83.60
2022-11-08T10:39:55.033Z,84.11
2022-11-08T10:40:55.021Z,84.22
2022-11-08T10:41:55.015Z,83.66
2022-11-08T10:42:54.995Z,83.36
2022-11-08T10:43:54.986Z,83.05
2022-11-08T10:44:54.968Z,83.56
2022-11-08T10:45:54.952Z,82.03
2022-11-08T10:46:54.942Z,81.82
2022-11-08T10:47:54.931Z,82.43
2022-11-08T10:48:54.915Z,82.34
2022-11-08T10:49:58.266Z,82.75
2022-11-08T10:50:55.924Z,82.43
2022-11-08T10:51:54.884Z,82.64
2022-11-08T10:52:54.898Z,81.93
2022-11-08T10:53:54.900Z,81.82
2022-11-08T10:54:54.850Z,81.82
2022-11-08T10:55:54.823Z,82.13
2022-11-08T10:56:54.822Z,82.40
2022-11-08T10:57:54.812Z,81.58
2022-11-08T10:58:54.790Z,81.68
2022-11-08T10:59:54.789Z,83.22
2022-11-08T11:00:54.766Z,82.91
2022-11-08T11:01:54.837Z,81.48
2022-11-08T11:02:54.742Z,80.66
2022-11-08T11:03:54.721Z,81.17
2022-11-08T11:04:54.712Z,81.17
2022-11-08T11:05:54.704Z,81.38
2022-11-08T11:06:54.712Z,80.25
2022-11-08T11:07:59.060Z,80.76
2022-11-08T11:08:55.709Z,81.27
2022-11-08T11:09:54.649Z,81.24
2022-11-08T11:10:54.632Z,80.52
2022-11-08T11:11:54.627Z,79.91
2022-11-08T11:12:54.605Z,80.52
2022-11-08T11:13:54.599Z,80.52
2022-11-08T11:14:54.578Z,79.43
2022-11-08T11:15:54.579Z,80.46
2022-11-08T11:16:54.567Z,79.94
2022-11-08T11:17:54.552Z,80.35
2022-11-08T11:18:54.533Z,80.25
2022-11-08T11:19:54.521Z,80.66
2022-11-08T11:20:54.509Z,80.05
2022-11-08T11:21:54.497Z,80.46
2022-11-08T11:22:54.481Z,79.74
2022-11-08T11:23:54.471Z,80.15
2022-11-08T11:24:54.482Z,81.17
2022-11-08T11:25:54.452Z,81.27
2022-11-08T11:26:54.434Z,81.74
2022-11-08T11:27:54.424Z,81.54
2022-11-08T11:28:54.449Z,81.44
2022-11-08T11:29:54.393Z,81.34
2022-11-08T11:30:54.388Z,81.34
2022-11-08T11:31:54.366Z,82.05
2022-11-08T11:32:54.406Z,80.83
2022-11-08T11:33:54.343Z,80.52
2022-11-08T11:34:54.328Z,80.93
2022-11-08T11:35:54.317Z,81.95
2022-11-08T11:36:54.304Z,80.62
2022-11-08T11:37:54.307Z,79.70
2022-11-08T11:38:54.280Z,80.52
2022-11-08T11:39:54.269Z,80.52
2022-11-08T11:40:54.307Z,79.74
2022-11-08T11:41:54.240Z,79.94
2022-11-08T11:42:54.227Z,80.56
2022-11-08T11:43:54.215Z,80.15
2022-11-08T11:44:54.201Z,79.91
2022-11-08T11:45:54.183Z,80.11
2022-11-08T11:46:54.171Z,80.01
2022-11-08T11:47:54.163Z,80.01
2022-11-08T11:48:54.146Z,80.62
2022-11-08T11:49:54.132Z,80.83
2022-11-08T11:50:54.212Z,80.11
2022-11-08T11:51:54.106Z,79.60
2022-11-08T11:52:54.098Z,79.29
2022-11-08T11:53:54.079Z,79.09
2022-11-08T11:54:54.067Z,79.87
2022-11-08T11:55:54.056Z,80.07
2022-11-08T11:56:54.067Z,80.18
2022-11-08T11:57:54.032Z,80.14
2022-11-08T11:58:54.018Z,80.96
2022-11-08T11:59:54.008Z,79.93
2022-11-08T12:00:53.989Z,78.30
2022-11-08T12:01:54.143Z,78.47
2022-11-08T12:02:53.964Z,79.18
2022-11-08T12:03:53.957Z,78.57
2022-11-08T12:04:53.938Z,77.75
2022-11-08T12:05:53.932Z,76.90
2022-11-08T12:06:54.068Z,76.73
2022-11-08T12:07:53.913Z,78.16
2022-11-08T12:08:53.889Z,77.45
2022-11-08T12:09:53.878Z,77.86
2022-11-08T12:10:53.861Z,76.93
2022-11-08T12:11:53.849Z,77.82
2022-11-08T12:12:53.855Z,78.33
2022-11-08T12:13:54.676Z,77.82
2022-11-08T12:14:53.813Z,77.11
2022-11-08T12:15:53.800Z,77.11
2022-11-08T12:16:53.784Z,75.88
2022-11-08T12:17:53.773Z,76.22
2022-11-08T12:18:53.760Z,76.02
2022-11-08T12:19:53.749Z,76.16
2022-11-08T12:20:53.732Z,76.16
2022-11-08T12:21:53.722Z,77.79
2022-11-08T12:22:53.705Z,77.89
2022-11-08T12:23:53.707Z,77.79
2022-11-08T12:24:53.680Z,78.09
2022-11-08T12:25:53.671Z,76.90
2022-11-08T12:26:53.660Z,77.22
2022-11-08T12:27:53.642Z,77.42
2022-11-08T12:28:53.656Z,77.93
2022-11-08T12:29:53.620Z,77.72
2022-11-08T12:30:53.610Z,77.62
2022-11-08T12:31:53.603Z,77.72
2022-11-08T12:32:53.597Z,76.90
2022-11-08T12:33:57.728Z,77.31
2022-11-08T12:34:53.562Z,77.01
2022-11-08T12:35:53.539Z,76.64
2022-11-08T12:36:53.528Z,76.84
2022-11-08T12:37:53.523Z,76.94
2022-11-08T12:38:53.501Z,76.74
2022-11-08T12:39:53.490Z,77.25
2022-11-08T12:40:53.474Z,77.25
2022-11-08T12:41:53.464Z,76.94
2022-11-08T12:42:53.451Z,77.35
2022-11-08T12:43:53.441Z,77.42
2022-11-08T12:44:53.442Z,77.62
2022-11-08T12:45:53.411Z,79.25
2022-11-08T12:46:53.401Z,76.60
2022-11-08T12:47:53.393Z,75.41
2022-11-08T12:48:53.371Z,75.82
2022-11-08T12:49:53.359Z,76.12
2022-11-08T12:50:55.235Z,76.64
2022-11-08T12:51:53.355Z,76.23
2022-11-08T12:52:53.325Z,75.92
2022-11-08T12:53:53.311Z,77.86
2022-11-08T12:54:53.300Z,78.17